Time;durP1;ratioP1;P1;durP2;ratioP2;P2;SDS_P1;SDS_P2;PMS_P1;PMS_P2;Temp;Humidity;BMP_temperature;BMP_pressure;BME280_temperature;BME280_humidity;BME280_pressure;Samples;Min_cycle;Max_cycle;Signal;HPM_P1;HPM_P2
2023/10/04 00:00:20;;;;;;;;;0.75;0.50;;;;;15.52;68.30;102330.22;4993993;28;8926;-69
2023/10/04 00:02:51;;;;;;;;;0.00;0.00;;;;;15.52;68.55;102341.91;4993239;28;8921;-69
2023/10/04 00:05:21;;;;;;;;;1.00;1.00;;;;;15.50;68.59;102338.53;4992906;28;8940;-69
2023/10/04 00:07:50;;;;;;;;;1.67;0.00;;;;;15.44;68.49;102339.28;4993682;28;8921;-69
2023/10/04 00:10:17;;;;;;;;;1.00;1.00;;;;;15.44;68.45;102343.88;4991939;28;9042;-69
2023/10/04 00:12:45;;;;;;;;;1.00;1.00;;;;;15.44;68.31;102355.59;4992258;28;8928;-69
2023/10/04 00:15:13;;;;;;;;;2.00;0.00;;;;;15.45;68.34;102353.72;4993353;28;8968;-69
2023/10/04 00:17:42;;;;;;;;;0.00;0.00;;;;;15.45;68.62;102356.41;4998777;28;9521;-69
2023/10/04 00:20:12;;;;;;;;;0.00;0.00;;;;;15.41;68.52;102360.53;4988607;28;8982;-69
2023/10/04 00:22:40;;;;;;;;;0.33;0.00;;;;;15.42;68.35;102363.06;4993742;28;8831;-69
2023/10/04 00:25:16;;;;;;;;;6.00;0.00;;;;;15.41;68.70;102357.81;4992039;28;8910;-69
2023/10/04 00:27:43;;;;;;;;;0.00;0.00;;;;;15.41;68.42;102364.09;4989818;28;9012;-69
2023/10/04 00:30:11;;;;;;;;;0.00;0.00;;;;;15.41;68.49;102364.09;4997974;28;8950;-69
2023/10/04 00:32:38;;;;;;;;;2.00;1.00;;;;;15.40;68.56;102358.88;4991739;28;9552;-69
2023/10/04 00:35:09;;;;;;;;;1.00;0.00;;;;;15.40;68.74;102359.72;4988809;28;9009;-69
2023/10/04 00:37:35;;;;;;;;;0.00;0.00;;;;;15.40;68.50;102364.28;4956966;28;8941;-69
2023/10/04 00:40:09;;;;;;;;;0.67;0.67;;;;;15.39;68.86;102368.00;4980375;28;8954;-69
2023/10/04 00:42:36;;;;;;;;;0.00;0.00;;;;;15.39;68.71;102368.00;4996359;28;9107;-69
2023/10/04 00:45:03;;;;;;;;;0.00;0.00;;;;;15.38;68.96;102371.75;4988564;28;9006;-69
2023/10/04 00:47:31;;;;;;;;;0.00;0.00;;;;;15.38;68.76;102371.75;4978584;28;9712;-69
2023/10/04 00:50:07;;;;;;;;;2.50;2.50;;;;;15.36;68.81;102371.97;4983031;28;8940;-69
2023/10/04 00:52:35;;;;;;;;;0.67;0.67;;;;;15.37;69.09;102373.66;4991952;28;8981;-69
2023/10/04 00:55:02;;;;;;;;;0.00;0.00;;;;;15.38;68.92;102374.47;4993331;28;9067;-69
2023/10/04 00:57:28;;;;;;;;;0.00;0.00;;;;;15.40;69.14;102377.88;4993483;28;8837;-69
2023/10/04 00:59:56;;;;;;;;;0.00;0.00;;;;;15.38;69.08;102372.59;4974546;28;8855;-69
2023/10/04 01:02:22;;;;;;;;;0.50;0.00;;;;;15.39;68.93;102378.88;4969263;28;9022;-68
2023/10/04 01:04:49;;;;;;;;;1.00;0.00;;;;;15.37;69.38;102383.66;4992758;28;8838;-69
2023/10/04 01:07:16;;;;;;;;;0.00;0.00;;;;;15.33;69.11;102373.19;4991353;28;9698;-69
2023/10/04 01:09:43;;;;;;;;;0.25;0.25;;;;;15.33;69.22;102375.06;4993189;28;9052;-68
2023/10/04 01:12:09;;;;;;;;;1.00;1.00;;;;;15.33;69.48;102380.47;4991448;28;8855;-68
2023/10/04 01:14:38;;;;;;;;;1.00;1.00;;;;;15.31;69.70;102391.53;4961483;28;9040;-69
2023/10/04 01:17:11;;;;;;;;;1.00;1.00;;;;;15.32;69.51;102390.50;4978528;28;8918;-69
2023/10/04 01:19:37;;;;;;;;;0.00;0.00;;;;;15.31;69.85;102390.66;4974700;28;8871;-69
2023/10/04 01:22:05;;;;;;;;;0.33;0.33;;;;;15.30;69.52;102387.09;4999142;28;9006;-69
2023/10/04 01:24:33;;;;;;;;;0.00;0.00;;;;;15.31;69.69;102390.66;4991249;28;9194;-69
2023/10/04 01:27:00;;;;;;;;;0.00;0.00;;;;;15.28;69.97;102386.47;4988591;28;9164;-69
2023/10/04 01:29:27;;;;;;;;;4.00;1.00;;;;;15.29;69.95;102390.03;4976435;28;9131;-69
2023/10/04 01:31:54;;;;;;;;;0.00;0.00;;;;;15.28;69.68;102383.75;4972286;28;9086;-69
2023/10/04 01:34:21;;;;;;;;;0.00;0.00;;;;;15.30;69.86;102383.56;4991704;28;9073;-69
2023/10/04 01:36:47;;;;;;;;;0.33;0.33;;;;;15.31;69.92;102386.09;4993673;28;9241;-69
2023/10/04 01:39:19;;;;;;;;;2.00;1.00;;;;;15.31;69.52;102368.94;4976607;28;9168;-69
2023/10/04 01:41:47;;;;;;;;;1.00;1.00;;;;;15.30;69.95;102381.69;4992096;28;9123;-69
2023/10/04 01:44:15;;;;;;;;;2.00;1.00;;;;;15.31;69.54;102382.53;4975557;28;8996;-69
2023/10/04 01:46:42;;;;;;;;;1.00;1.00;;;;;15.28;69.55;102372.91;4969798;28;9045;-69
2023/10/04 01:49:09;;;;;;;;;1.33;0.00;;;;;15.25;70.04;102378.69;5008015;28;9078;-69
2023/10/04 01:51:35;;;;;;;;;0.00;0.00;;;;;15.26;70.32;102383.09;4973844;28;9024;-69
2023/10/04 01:54:04;;;;;;;;;0.00;0.00;;;;;15.24;70.22;102379.72;4982536;28;9079;-69
2023/10/04 01:56:31;;;;;;;;;2.00;0.67;;;;;15.24;70.50;102381.59;4992840;28;8980;-69
2023/10/04 01:58:58;;;;;;;;;0.67;0.00;;;;;15.25;70.16;102377.84;4993359;28;8972;-69
2023/10/04 02:01:24;;;;;;;;;1.00;0.00;;;;;15.23;70.39;102380.78;4982246;28;8988;-69
2023/10/04 02:03:53;;;;;;;;;3.00;1.00;;;;;15.23;70.49;102380.78;4973900;28;8957;-69
2023/10/04 02:06:20;;;;;;;;;1.00;0.00;;;;;15.24;70.16;102378.91;4977394;28;9153;-69
2023/10/04 02:08:48;;;;;;;;;1.00;1.00;;;;;15.22;70.60;102381.78;4993384;28;9500;-69
2023/10/04 02:11:14;;;;;;;;;0.00;0.00;;;;;15.23;70.12;102383.47;4975278;28;9168;-69
2023/10/04 02:13:42;;;;;;;;;1.00;1.00;;;;;15.26;70.36;102382.25;4972692;28;9080;-69
2023/10/04 02:16:16;;;;;;;;;0.00;0.00;;;;;15.27;70.59;102382.09;4989244;28;9070;-69
2023/10/04 02:18:42;;;;;;;;;1.50;0.00;;;;;15.25;70.41;102377.84;4991449;28;8996;-69
2023/10/04 02:21:10;;;;;;;;;0.00;0.00;;;;;15.26;70.49;102377.66;4982617;28;8933;-69
2023/10/04 02:23:38;;;;;;;;;1.00;0.75;;;;;15.25;71.05;102391.44;4993316;28;8897;-69
2023/10/04 02:26:06;;;;;;;;;1.00;1.00;;;;;15.22;71.27;102389.91;4992964;28;9549;-69
2023/10/04 02:28:33;;;;;;;;;1.00;1.00;;;;;15.21;71.22;102390.13;4975165;28;8945;-69
2023/10/04 02:31:02;;;;;;;;;1.00;0.00;;;;;15.20;70.88;102396.56;4990155;28;9016;-69
2023/10/04 02:33:34;;;;;;;;;1.00;1.00;;;;;15.18;71.14;102399.47;4997262;28;8888;-69
2023/10/04 02:36:01;;;;;;;;;0.00;0.00;;;;;15.16;71.14;102395.25;4988456;28;8855;-69
2023/10/04 02:38:33;;;;;;;;;0.67;0.00;;;;;15.14;71.01;102400.84;4989011;28;8989;-69
2023/10/04 02:41:00;;;;;;;;;0.00;0.00;;;;;15.13;71.10;102401.91;4989879;28;9073;-69
2023/10/04 02:43:27;;;;;;;;;1.50;0.50;;;;;15.14;70.92;102403.56;4973073;28;8937;-69
2023/10/04 02:45:57;;;;;;;;;0.00;0.00;;;;;15.16;70.93;102400.69;4990945;28;8878;-69
2023/10/04 02:48:24;;;;;;;;;0.67;0.67;;;;;15.16;70.92;102408.81;5006244;28;9005;-69
2023/10/04 02:50:52;;;;;;;;;0.67;0.67;;;;;15.15;70.62;102407.13;4995648;28;9093;-69
2023/10/04 02:53:24;;;;;;;;;2.00;1.00;;;;;15.13;70.96;102409.19;4954490;28;9728;-69
2023/10/04 02:55:54;;;;;;;;;2.00;1.00;;;;;15.11;70.66;102414.81;4972367;28;9076;-69
2023/10/04 02:58:26;;;;;;;;;0.00;0.00;;;;;15.10;70.92;102404.97;4979111;28;8914;-69
2023/10/04 03:00:54;;;;;;;;;0.00;0.00;;;;;15.09;70.58;102408.72;4999834;28;8831;-69
2023/10/04 03:03:24;;;;;;;;;0.00;0.00;;;;;15.08;70.58;102410.59;4989700;28;9031;-69
2023/10/04 03:05:56;;;;;;;;;0.00;0.00;;;;;15.06;70.68;102403.66;4973419;28;8929;-69
2023/10/04 03:08:23;;;;;;;;;1.00;1.00;;;;;15.07;71.08;102414.34;4973537;28;8958;-69
2023/10/04 03:10:50;;;;;;;;;1.33;1.33;;;;;15.06;71.12;102403.66;4989423;28;9198;-69
2023/10/04 03:13:25;;;;;;;;;0.33;0.33;;;;;15.07;70.71;102410.78;4968933;28;9051;-69
2023/10/04 03:15:55;;;;;;;;;0.00;0.00;;;;;15.07;71.18;102408.06;4977994;28;9087;-69
2023/10/04 03:18:25;;;;;;;;;2.00;2.00;;;;;15.07;71.03;102416.22;5005695;28;9084;-69
2023/10/04 03:21:00;;;;;;;;;1.33;1.00;;;;;15.05;71.23;102418.25;5009132;28;9116;-69
2023/10/04 03:23:35;;;;;;;;;0.00;0.00;;;;;15.05;70.94;102415.53;5006262;28;9930;-69
2023/10/04 03:26:07;;;;;;;;;0.33;0.33;;;;;15.07;71.44;102418.94;4970503;28;9191;-69
2023/10/04 03:28:37;;;;;;;;;4.00;1.00;;;;;15.05;71.48;102415.53;4987001;28;9206;-69
2023/10/04 03:31:14;;;;;;;;;0.00;0.00;;;;;15.05;71.52;102401.97;4964978;28;9158;-69
2023/10/04 03:33:44;;;;;;;;;0.00;0.00;;;;;15.05;71.48;102401.97;4969523;28;9854;-69
2023/10/04 03:36:18;;;;;;;;;0.67;0.67;;;;;15.03;71.65;102398.63;4982237;28;9026;-69
2023/10/04 03:38:50;;;;;;;;;1.00;1.00;;;;;15.00;71.83;102401.72;4986892;28;9102;-69
2023/10/04 03:41:19;;;;;;;;;5.00;1.00;;;;;14.99;71.54;102402.72;4988353;28;9305;-69
2023/10/04 03:43:47;;;;;;;;;1.33;1.00;;;;;14.95;71.98;102402.25;4972765;28;9340;-69
2023/10/04 03:46:19;;;;;;;;;0.00;0.00;;;;;14.98;72.03;102409.16;4972756;28;9200;-69
2023/10/04 03:48:58;;;;;;;;;1.67;1.67;;;;;14.98;71.91;102410.00;4972205;28;9071;-69
2023/10/04 03:51:26;;;;;;;;;1.33;1.00;;;;;14.98;71.96;102420.00;4984613;28;9177;-69
2023/10/04 03:53:56;;;;;;;;;1.67;1.00;;;;;14.98;71.67;102420.00;4982317;28;9224;-69
2023/10/04 03:56:25;;;;;;;;;4.00;0.00;;;;;14.97;72.00;102416.47;4972948;28;9032;-69
2023/10/04 03:58:54;;;;;;;;;2.00;1.00;;;;;14.97;71.93;102412.91;4957259;28;9035;-69
2023/10/04 04:01:20;;;;;;;;;1.00;1.00;;;;;14.97;71.99;102407.50;4972835;28;9099;-69
2023/10/04 04:03:49;;;;;;;;;1.00;1.00;;;;;14.96;71.80;102397.69;4987694;28;9014;-68
2023/10/04 04:06:17;;;;;;;;;1.67;1.00;;;;;14.92;71.86;102397.19;4979198;28;9088;-69
2023/10/04 04:08:46;;;;;;;;;1.67;1.67;;;;;14.90;72.10;102385.69;4972390;28;9803;-69
2023/10/04 04:11:13;;;;;;;;;1.00;1.00;;;;;14.89;71.89;102385.88;4982467;28;9125;-69
2023/10/04 04:13:40;;;;;;;;;0.33;0.33;;;;;14.89;71.80;102384.00;4974345;28;9088;-69
2023/10/04 04:16:09;;;;;;;;;1.33;1.33;;;;;14.88;71.67;102381.50;4971284;28;9273;-69
2023/10/04 04:18:37;;;;;;;;;1.67;1.00;;;;;14.88;71.80;102384.22;4959179;28;9080;-69
2023/10/04 04:21:05;;;;;;;;;1.67;1.67;;;;;14.90;71.50;102380.25;4969591;28;9124;-69
2023/10/04 04:23:32;;;;;;;;;1.00;1.00;;;;;14.90;71.90;102377.56;4976897;28;9081;-69
2023/10/04 04:26:00;;;;;;;;;0.67;0.67;;;;;14.90;71.84;102374.00;4988514;28;8988;-69
2023/10/04 04:28:29;;;;;;;;;0.00;0.00;;;;;14.87;71.80;102385.22;4988592;28;9742;-69
2023/10/04 04:30:58;;;;;;;;;0.67;0.00;;;;;14.85;71.89;102388.13;4972478;28;9088;-69
2023/10/04 04:33:28;;;;;;;;;0.00;0.00;;;;;14.86;71.82;102397.09;4968620;28;9108;-69
2023/10/04 04:36:05;;;;;;;;;0.00;0.00;;;;;14.84;71.85;102398.13;4992734;28;9197;-69
2023/10/04 04:38:37;;;;;;;;;3.33;1.00;;;;;14.82;72.03;102407.44;4981734;28;9099;-69
2023/10/04 04:41:12;;;;;;;;;0.00;0.00;;;;;14.80;72.11;102410.38;4983443;28;9283;-69
2023/10/04 04:43:39;;;;;;;;;1.00;1.00;;;;;14.79;72.32;102410.56;5003436;28;9086;-69
2023/10/04 04:46:13;;;;;;;;;2.00;1.00;;;;;14.79;71.98;102422.25;4991738;28;9337;-69
2023/10/04 04:48:41;;;;;;;;;0.33;0.33;;;;;14.77;72.08;102429.69;4975316;28;9259;-68
2023/10/04 04:51:11;;;;;;;;;0.67;0.33;;;;;14.76;72.36;102422.59;4985305;28;9328;-69
2023/10/04 04:53:43;;;;;;;;;1.33;0.00;;;;;14.76;72.27;102433.44;5003179;28;9257;-69
2023/10/04 04:56:15;;;;;;;;;3.00;3.00;;;;;14.72;72.29;102424.00;4975642;28;9300;-68
2023/10/04 04:58:51;;;;;;;;;2.33;1.00;;;;;14.69;72.33;102421.63;4975849;28;9388;-68
2023/10/04 05:01:18;;;;;;;;;3.00;1.67;;;;;14.65;72.76;102414.91;4991492;28;9417;-68
2023/10/04 05:03:50;;;;;;;;;2.00;2.00;;;;;14.63;72.48;102426.97;4975177;28;10086;-68
2023/10/04 05:06:25;;;;;;;;;2.00;2.00;;;;;14.58;73.05;102433.78;4972667;28;9312;-69
2023/10/04 05:08:56;;;;;;;;;4.00;2.00;;;;;14.53;72.89;102443.47;4992972;28;9457;-69
2023/10/04 05:11:24;;;;;;;;;3.00;3.00;;;;;14.50;73.36;102441.09;4992554;28;9240;-68
2023/10/04 05:13:51;;;;;;;;;1.67;1.00;;;;;14.46;73.28;102447.88;4993465;28;9317;-69
2023/10/04 05:16:18;;;;;;;;;2.00;2.00;;;;;14.42;73.40;102446.53;4995034;28;9427;-69
2023/10/04 05:18:44;;;;;;;;;1.00;1.00;;;;;14.38;73.81;102442.50;4988320;28;9280;-69
2023/10/04 05:21:12;;;;;;;;;1.00;1.00;;;;;14.35;73.76;102444.56;4990904;28;9260;-68
2023/10/04 05:23:38;;;;;;;;;1.67;1.67;;;;;14.32;74.02;102449.50;4992893;28;9216;-68
2023/10/04 05:26:05;;;;;;;;;2.33;2.00;;;;;14.29;73.97;102447.16;4992527;28;9243;-68
2023/10/04 05:28:33;;;;;;;;;2.33;2.00;;;;;14.28;74.30;102453.59;4992281;28;9330;-69
2023/10/04 05:31:00;;;;;;;;;2.67;2.00;;;;;14.24;74.25;102452.28;4975505;28;9388;-69
2023/10/04 05:33:27;;;;;;;;;2.00;1.00;;;;;14.22;74.57;102457.88;4989270;28;10150;-69
2023/10/04 05:35:55;;;;;;;;;1.00;1.00;;;;;14.19;74.68;102458.22;4977734;28;9412;-69
2023/10/04 05:38:23;;;;;;;;;2.00;2.00;;;;;14.17;74.66;102462.97;4991915;28;9382;-69
2023/10/04 05:40:50;;;;;;;;;2.00;2.00;;;;;14.13;74.72;102461.63;4955147;28;9424;-70
2023/10/04 05:43:18;;;;;;;;;2.00;0.33;;;;;14.16;74.99;102464.00;4972794;28;9471;-70
2023/10/04 05:45:47;;;;;;;;;2.00;2.00;;;;;14.17;75.15;102465.66;4976051;28;9964;-69
2023/10/04 05:48:18;;;;;;;;;3.50;3.50;;;;;14.17;74.92;102468.38;4990094;28;9647;-70
2023/10/04 05:50:49;;;;;;;;;4.50;3.00;;;;;14.18;74.99;102478.22;4987824;28;9616;-70
2023/10/04 05:53:19;;;;;;;;;7.00;5.25;;;;;14.18;74.92;102469.22;4986728;28;9529;-70
2023/10/04 05:55:48;;;;;;;;;5.00;4.00;;;;;14.17;75.09;102476.50;4969701;28;10390;-70
2023/10/04 05:58:16;;;;;;;;;4.00;3.25;;;;;14.17;75.05;102476.50;4973150;28;9510;-70
2023/10/04 06:00:46;;;;;;;;;7.75;6.25;;;;;14.18;75.03;102472.78;4997997;28;9415;-70
2023/10/04 06:03:13;;;;;;;;;2.75;2.00;;;;;14.18;75.31;102472.78;4990861;28;9643;-70
2023/10/04 06:05:41;;;;;;;;;5.00;2.50;;;;;14.20;75.23;102478.03;4977780;28;9373;-69
2023/10/04 06:08:24;;;;;;;;;8.25;6.75;;;;;14.18;75.14;102475.50;4987952;28;9491;-70
2023/10/04 06:10:55;;;;;;;;;2.00;1.00;;;;;14.20;75.52;102473.44;4989419;28;9663;-70
2023/10/04 06:13:25;;;;;;;;;7.00;3.33;;;;;14.21;75.54;102479.69;4988249;28;9381;-70
2023/10/04 06:15:56;;;;;;;;;3.00;3.00;;;;;14.23;75.42;102474.97;4984466;28;9920;-70
2023/10/04 06:18:29;;;;;;;;;2.00;2.00;;;;;14.32;75.04;102473.88;4993684;28;9316;-70
2023/10/04 06:20:56;;;;;;;;;4.33;1.00;;;;;14.35;75.09;102473.53;4983003;28;9392;-70
2023/10/04 06:23:24;;;;;;;;;3.00;1.00;;;;;14.34;75.01;102486.25;4967904;28;9933;-70
2023/10/04 06:25:51;;;;;;;;;1.33;1.33;;;;;14.29;75.20;102485.06;4986306;28;9236;-70
2023/10/04 06:28:19;;;;;;;;;2.00;2.00;;;;;14.26;75.36;102482.72;4985993;28;9295;-70
2023/10/04 06:30:48;;;;;;;;;1.00;1.00;;;;;14.26;75.53;102488.13;4984695;28;9478;-70
2023/10/04 06:33:16;;;;;;;;;4.00;2.00;;;;;14.27;75.64;102490.69;4982976;28;9410;-70
2023/10/04 06:35:46;;;;;;;;;1.67;1.67;;;;;14.27;75.69;102490.69;4981343;28;9385;-70
2023/10/04 06:38:13;;;;;;;;;2.00;1.00;;;;;14.28;75.37;102486.09;4977079;28;10218;-70
2023/10/04 06:40:42;;;;;;;;;3.00;3.00;;;;;14.28;75.68;102486.09;4982613;28;9401;-70
2023/10/04 06:43:10;;;;;;;;;2.00;2.00;;;;;14.28;75.50;102489.66;4982977;28;10126;-70
2023/10/04 06:45:39;;;;;;;;;3.67;2.00;;;;;14.27;75.71;102492.56;4984619;28;9302;-70
2023/10/04 06:48:07;;;;;;;;;3.00;1.67;;;;;14.26;75.75;102494.41;4978781;28;9408;-70
2023/10/04 06:50:36;;;;;;;;;2.00;2.00;;;;;14.26;76.00;102490.84;4962144;28;9246;-70
2023/10/04 06:53:03;;;;;;;;;2.00;2.00;;;;;14.24;75.97;102498.31;4977310;28;9431;-70
2023/10/04 06:55:31;;;;;;;;;2.00;2.00;;;;;14.21;76.08;102504.91;4963489;28;9329;-70
2023/10/04 06:57:59;;;;;;;;;1.33;1.33;;;;;14.25;75.91;102503.53;4979004;28;9973;-70
2023/10/04 07:00:30;;;;;;;;;2.00;2.00;;;;;14.23;75.82;102511.03;4962700;28;9507;-70
2023/10/04 07:02:58;;;;;;;;;2.33;2.00;;;;;14.23;76.19;102511.03;4983548;28;9598;-70
2023/10/04 07:05:29;;;;;;;;;1.75;1.75;;;;;14.27;75.83;102514.22;4979781;28;9456;-71
2023/10/04 07:07:59;;;;;;;;;1.67;1.67;;;;;14.30;75.65;102511.13;4980338;28;9485;-70
2023/10/04 07:10:28;;;;;;;;;2.50;2.00;;;;;14.30;75.35;102513.84;4991065;28;10068;-70
2023/10/04 07:12:57;;;;;;;;;4.00;3.00;;;;;14.29;75.46;102518.41;4973017;28;9438;-70
2023/10/04 07:15:39;;;;;;;;;3.00;3.00;;;;;14.29;75.27;102523.00;4973390;28;9394;-70
2023/10/04 07:18:09;;;;;;;;;4.00;4.00;;;;;14.26;75.41;102524.22;4989716;28;9465;-70
2023/10/04 07:20:37;;;;;;;;;2.67;2.00;;;;;14.23;75.51;102519.16;4990209;28;9615;-70
2023/10/04 07:23:07;;;;;;;;;4.67;2.67;;;;;14.29;75.32;102517.56;4997304;28;9396;-70
2023/10/04 07:25:37;;;;;;;;;4.00;4.00;;;;;14.28;75.08;102524.88;5005862;28;9457;-70
2023/10/04 07:28:08;;;;;;;;;3.33;2.00;;;;;14.31;75.09;102516.38;4990477;28;9439;-70
2023/10/04 07:30:36;;;;;;;;;3.00;2.00;;;;;14.34;75.35;102523.31;4990648;28;9313;-70
2023/10/04 07:33:03;;;;;;;;;4.67;2.00;;;;;14.35;75.32;102523.13;4990560;28;9235;-69
2023/10/04 07:35:32;;;;;;;;;2.00;2.00;;;;;14.43;75.15;102524.97;4990294;28;9398;-70
2023/10/04 07:37:58;;;;;;;;;1.00;1.00;;;;;14.45;74.92;102530.19;4972782;28;9268;-70
2023/10/04 07:40:30;;;;;;;;;2.00;1.67;;;;;14.50;75.04;102530.53;4973161;28;9256;-69
2023/10/04 07:42:57;;;;;;;;;4.00;3.00;;;;;14.48;75.03;102536.09;4957221;28;9390;-71
2023/10/04 07:45:27;;;;;;;;;2.00;2.00;;;;;14.48;75.11;102532.56;4990482;28;10083;-70
2023/10/04 07:47:56;;;;;;;;;3.67;3.67;;;;;14.48;75.26;102538.81;4989500;28;9349;-70
2023/10/04 07:50:24;;;;;;;;;2.67;2.00;;;;;14.45;75.33;102533.75;4989700;28;9397;-70
2023/10/04 07:52:54;;;;;;;;;2.00;2.00;;;;;14.49;75.38;102537.81;4990261;28;9266;-70
2023/10/04 07:55:22;;;;;;;;;3.00;2.00;;;;;14.56;75.58;102546.91;4989904;28;9253;-70
2023/10/04 07:57:51;;;;;;;;;4.00;4.00;;;;;14.55;75.64;102545.25;4990079;28;9338;-70
2023/10/04 08:00:17;;;;;;;;;2.00;1.67;;;;;14.53;75.54;102546.44;4972792;28;9463;-70
2023/10/04 08:02:51;;;;;;;;;2.00;2.00;;;;;14.55;75.78;102552.53;4988451;28;9392;-70
2023/10/04 08:05:20;;;;;;;;;2.33;2.00;;;;;14.56;76.10;102551.50;4989396;28;9301;-69
2023/10/04 08:07:48;;;;;;;;;5.67;4.33;;;;;14.48;76.48;102556.94;4989788;28;9371;-70
2023/10/04 08:10:16;;;;;;;;;4.00;2.33;;;;;14.53;76.80;102552.69;4989387;28;9341;-70
2023/10/04 08:12:44;;;;;;;;;3.00;3.00;;;;;14.55;76.80;102556.09;4993260;28;9288;-70
2023/10/04 08:15:15;;;;;;;;;5.67;2.33;;;;;14.62;76.49;102553.47;5000313;28;9283;-70
2023/10/04 08:17:46;;;;;;;;;3.00;3.00;;;;;14.67;76.39;102561.09;4993690;28;9297;-70
2023/10/04 08:20:16;;;;;;;;;3.67;3.00;;;;;14.69;76.63;102556.31;4989423;28;9269;-70
2023/10/04 08:22:43;;;;;;;;;2.00;2.00;;;;;14.75;76.55;102555.63;4984223;28;9219;-69
2023/10/04 08:25:16;;;;;;;;;2.67;2.00;;;;;14.76;76.54;102555.44;4988763;28;9228;-70
2023/10/04 08:27:44;;;;;;;;;4.00;3.67;;;;;14.77;76.67;102548.13;4990138;28;9410;-70
2023/10/04 08:30:12;;;;;;;;;2.67;2.00;;;;;14.80;76.90;102547.78;4993806;28;9259;-70
2023/10/04 08:32:41;;;;;;;;;2.33;2.33;;;;;14.90;76.76;102550.25;5008667;28;9405;-70
2023/10/04 08:35:09;;;;;;;;;5.00;4.00;;;;;14.96;76.49;102549.53;4992750;28;9164;-70
2023/10/04 08:37:35;;;;;;;;;3.33;2.67;;;;;15.00;76.67;102542.72;4993288;28;9264;-71
2023/10/04 08:40:02;;;;;;;;;3.00;3.00;;;;;15.03;76.66;102542.38;4993330;28;9319;-70
2023/10/04 08:42:29;;;;;;;;;3.00;3.00;;;;;15.09;76.62;102545.19;4993385;28;9196;-70
2023/10/04 08:44:56;;;;;;;;;2.33;2.33;;;;;15.13;76.73;102545.66;4976549;28;9184;-70
2023/10/04 08:47:24;;;;;;;;;3.00;3.00;;;;;15.20;76.64;102545.78;4993221;28;9106;-70
2023/10/04 08:49:55;;;;;;;;;5.00;3.00;;;;;15.25;76.81;102546.06;4976139;28;9098;-70
2023/10/04 08:52:37;;;;;;;;;3.67;3.00;;;;;15.29;76.74;102553.66;5015661;23;9061;-68
2023/10/04 08:55:16;;;;;;;;;5.33;5.33;;;;;15.28;76.66;102554.69;4991760;28;9076;-68
2023/10/04 08:57:43;;;;;;;;;5.33;4.00;;;;;15.33;76.51;102551.41;4992502;28;9241;-67
2023/10/04 09:00:13;;;;;;;;;7.67;4.00;;;;;15.39;76.81;102549.81;5008115;28;9089;-68
2023/10/04 09:02:58;;;;;;;;;6.00;4.00;;;;;15.42;76.45;102547.59;4988673;28;9263;-68
2023/10/04 09:05:28;;;;;;;;;3.33;3.33;;;;;15.47;76.45;102549.75;4991683;28;9090;-67
2023/10/04 09:07:55;;;;;;;;;7.00;6.00;;;;;15.45;76.74;102543.66;4985088;28;8989;-67
2023/10/04 09:10:24;;;;;;;;;4.67;4.67;;;;;15.43;76.99;102541.13;4972317;28;9234;-67
2023/10/04 09:12:51;;;;;;;;;2.33;2.33;;;;;15.52;76.62;102544.63;4973386;28;9282;-67
2023/10/04 09:15:26;;;;;;;;;6.00;4.00;;;;;15.55;76.62;102545.06;4973259;28;9070;-68
2023/10/04 09:17:57;;;;;;;;;4.33;2.67;;;;;15.55;76.84;102541.50;4973355;28;9222;-68
2023/10/04 09:20:35;;;;;;;;;2.75;2.00;;;;;15.55;76.84;102530.66;4973565;28;8959;-67
2023/10/04 09:23:14;;;;;;;;;1.33;1.33;;;;;15.58;76.63;102533.00;4972150;28;8944;-68
2023/10/04 09:25:41;;;;;;;;;1.67;1.67;;;;;15.59;76.80;102542.81;4973082;28;8934;-67
2023/10/04 09:28:09;;;;;;;;;3.00;3.00;;;;;15.59;76.83;102537.41;4972604;28;9011;-67
2023/10/04 09:30:39;;;;;;;;;6.00;3.33;;;;;15.56;76.94;102535.09;4972311;28;9062;-66
2023/10/04 09:33:28;;;;;;;;;4.33;2.00;;;;;15.62;77.50;102550.59;4973024;28;9140;-67
2023/10/04 09:35:55;;;;;;;;;2.67;2.67;;;;;15.66;77.41;102554.66;4973154;28;9117;-68
2023/10/04 09:38:22;;;;;;;;;2.67;2.67;;;;;15.66;77.62;102559.25;4971556;28;9105;-67
2023/10/04 09:40:55;;;;;;;;;2.33;2.33;;;;;15.70;77.58;102553.28;4973339;28;9081;-68
2023/10/04 09:43:48;;;;;;;;;2.33;2.33;;;;;15.74;77.35;102557.28;4971368;28;9066;-67
2023/10/04 09:46:14;;;;;;;;;4.00;2.00;;;;;15.76;77.38;102548.97;4970710;28;9096;-67
2023/10/04 09:48:43;;;;;;;;;3.00;3.00;;;;;15.81;77.64;102546.53;4972726;28;9158;-67
2023/10/04 09:51:11;;;;;;;;;3.00;3.00;;;;;15.79;77.43;102549.41;4972720;28;9123;-68
2023/10/04 09:53:41;;;;;;;;;2.33;2.33;;;;;15.77;76.83;102550.66;4972592;28;8837;-68
2023/10/04 09:56:12;;;;;;;;;2.67;2.67;;;;;15.74;76.16;102556.47;4970755;28;8938;-67
2023/10/04 09:58:51;;;;;;;;;3.67;3.00;;;;;15.70;74.93;102542.41;4972522;28;9034;-68
2023/10/04 10:01:22;;;;;;;;;4.33;1.67;;;;;15.72;73.72;102542.25;4972325;28;9068;-67
2023/10/04 10:03:56;;;;;;;;;1.25;1.25;;;;;15.78;72.73;102541.47;4972281;28;9757;-68
2023/10/04 10:06:26;;;;;;;;;0.00;0.00;;;;;15.83;72.09;102545.31;4972196;28;8850;-68
2023/10/04 10:09:05;;;;;;;;;5.25;1.25;;;;;15.89;72.08;102545.59;4972247;28;8838;-67
2023/10/04 10:11:32;;;;;;;;;0.75;0.75;;;;;15.87;71.62;102544.94;4962841;28;8866;-68
2023/10/04 10:14:09;;;;;;;;;1.00;1.00;;;;;15.88;71.17;102547.47;4969373;28;8845;-68
2023/10/04 10:16:37;;;;;;;;;1.50;1.50;;;;;15.93;70.37;102553.19;4978690;28;8831;-68
2023/10/04 10:19:04;;;;;;;;;2.00;2.00;;;;;15.95;70.58;102547.56;4980493;28;8842;-68
2023/10/04 10:22:06;;;;;;;;;3.00;2.00;;;;;15.99;70.26;102535.28;4974844;28;8960;-68
2023/10/04 10:24:33;;;;;;;;;2.50;0.75;;;;;16.02;69.93;102543.06;4972267;28;8854;-69
2023/10/04 10:27:09;;;;;;;;;2.25;1.75;;;;;15.98;69.96;102547.19;4973920;28;8948;-65
2023/10/04 10:29:38;;;;;;;;;1.00;1.00;;;;;16.00;69.76;102540.53;4961723;28;8845;-66
2023/10/04 10:32:22;;;;;;;;;3.75;3.00;;;;;15.99;69.82;102538.00;4954013;28;8951;-67
2023/10/04 10:34:56;;;;;;;;;2.00;2.00;;;;;16.02;70.09;102538.47;4961147;28;9624;-67
2023/10/04 10:37:24;;;;;;;;;5.50;3.25;;;;;15.98;70.06;102537.16;4970626;28;8834;-67
2023/10/04 10:39:53;;;;;;;;;2.50;2.25;;;;;16.01;70.41;102538.66;4970504;28;8864;-66
2023/10/04 10:42:20;;;;;;;;;6.00;2.25;;;;;16.05;70.39;102535.38;4971548;28;8862;-66
2023/10/04 10:44:49;;;;;;;;;1.25;1.25;;;;;16.11;70.66;102530.22;4971889;28;8833;-67
2023/10/04 10:47:23;;;;;;;;;3.00;3.00;;;;;16.14;70.42;102533.41;4968825;28;8850;-67
2023/10/04 10:50:12;;;;;;;;;3.50;2.75;;;;;16.16;70.80;102530.47;4971870;28;8908;-66
2023/10/04 10:52:39;;;;;;;;;1.75;1.75;;;;;16.15;70.69;102532.34;4970293;28;8834;-68
2023/10/04 10:55:17;;;;;;;;;2.00;1.33;;;;;16.13;70.66;102522.72;4971730;28;8852;-65
2023/10/04 10:57:47;;;;;;;;;2.00;2.00;;;;;16.36;72.83;102528.00;4971023;28;9071;-66
2023/10/04 11:00:22;;;;;;;;;8.00;3.00;;;;;16.37;71.33;102529.72;4953818;28;8844;-67
2023/10/04 11:02:53;;;;;;;;;2.25;1.50;;;;;16.38;70.45;102528.66;4955205;28;8942;-67
2023/10/04 11:05:21;;;;;;;;;5.50;3.00;;;;;16.37;69.68;102529.72;4971172;28;8957;-67
2023/10/04 11:07:50;;;;;;;;;2.50;2.00;;;;;16.42;69.78;102528.09;4971939;28;8932;-66
2023/10/04 11:10:17;;;;;;;;;1.25;1.25;;;;;16.47;69.25;102528.34;4971776;28;8849;-67
2023/10/04 11:12:44;;;;;;;;;1.50;1.50;;;;;16.54;69.16;102523.00;4971358;28;9004;-67
2023/10/04 11:15:12;;;;;;;;;0.50;0.50;;;;;16.51;68.88;102516.06;4963350;28;8855;-67
2023/10/04 11:17:39;;;;;;;;;0.25;0.25;;;;;16.53;68.73;102513.16;4951988;28;8848;-66
2023/10/04 11:20:17;;;;;;;;;2.00;2.00;;;;;16.49;67.96;102526.28;4934686;28;8837;-67
2023/10/04 11:22:45;;;;;;;;;2.75;1.25;;;;;16.48;66.75;102521.88;4951686;28;9576;-67
2023/10/04 11:25:15;;;;;;;;;3.00;1.00;;;;;16.53;66.69;102522.16;4952012;28;9018;-67
2023/10/04 11:27:43;;;;;;;;;4.00;2.00;;;;;16.58;66.91;102518.84;4951754;28;8864;-67
2023/10/04 11:30:17;;;;;;;;;1.25;1.25;;;;;16.58;66.81;102527.00;4952098;28;8997;-66
2023/10/04 11:32:46;;;;;;;;;2.67;2.67;;;;;16.56;66.98;102519.03;4950446;28;8934;-68
2023/10/04 11:35:15;;;;;;;;;2.50;1.75;;;;;16.50;67.23;102521.69;4951994;28;8945;-66
2023/10/04 11:37:47;;;;;;;;;0.75;0.75;;;;;16.52;66.92;102530.47;4970502;28;8825;-67
2023/10/04 11:40:17;;;;;;;;;3.25;1.75;;;;;16.51;67.35;102534.25;4971106;28;8924;-67
2023/10/04 11:42:44;;;;;;;;;8.00;2.00;;;;;16.42;66.12;102522.66;4970767;28;8956;-67
2023/10/04 11:45:19;;;;;;;;;3.33;2.33;;;;;16.37;66.02;102519.69;4971154;28;9000;-67